createdAt,value
2019-01-09T00:02:13.554Z,2.00
2019-01-09T00:04:41.987Z,2.47
2019-01-09T00:07:13.182Z,2.43
2019-01-09T00:09:41.697Z,2.77
2019-01-09T00:12:10.107Z,3.40
2019-01-09T00:14:38.546Z,2.70
2019-01-09T00:17:06.967Z,2.57
2019-01-09T00:19:35.407Z,2.60
2019-01-09T00:22:04.316Z,2.63
2019-01-09T00:24:32.757Z,2.83
2019-01-09T00:27:01.201Z,2.40
2019-01-09T00:29:29.699Z,1.73
2019-01-09T00:31:58.139Z,2.23
2019-01-09T00:34:26.588Z,3.10
2019-01-09T00:36:55.019Z,1.57
2019-01-09T00:39:23.495Z,3.60
2019-01-09T00:41:51.935Z,2.97
2019-01-09T00:44:20.371Z,2.13
2019-01-09T00:46:48.888Z,2.10
2019-01-09T00:49:17.302Z,4.90
2019-01-09T00:51:45.792Z,1.40
2019-01-09T00:54:14.366Z,2.23
2019-01-09T00:56:42.783Z,3.03
2019-01-09T00:59:11.316Z,2.57
2019-01-09T01:01:39.932Z,3.03
2019-01-09T01:04:30.924Z,2.00
2019-01-09T01:07:23.139Z,2.10
2019-01-09T01:10:13.825Z,2.80
2019-01-09T01:13:01.631Z,2.33
2019-01-09T01:15:58.584Z,1.67
2019-01-09T01:18:41.722Z,1.73
2019-01-09T01:21:25.065Z,1.43
2019-01-09T01:23:59.426Z,1.00
2019-01-09T01:26:39.764Z,1.47
2019-01-09T01:29:26.151Z,1.67
2019-01-09T01:32:15.598Z,1.73
2019-01-09T01:35:09.338Z,1.20
2019-01-09T01:37:58.461Z,2.13
2019-01-09T01:40:50.515Z,1.40
2019-01-09T01:43:24.967Z,1.10
2019-01-09T01:46:02.144Z,2.03
2019-01-09T01:48:48.443Z,1.13
2019-01-09T01:51:25.753Z,2.00
2019-01-09T01:54:19.700Z,1.50
2019-01-09T01:57:06.059Z,1.07
2019-01-09T01:59:37.576Z,1.13
2019-01-09T02:02:19.035Z,1.67
2019-01-09T02:04:53.250Z,1.77
2019-01-09T02:07:56.235Z,1.47
2019-01-09T02:10:52.902Z,1.97
2019-01-09T02:13:24.411Z,0.60
2019-01-09T02:16:22.555Z,1.57
2019-01-09T02:18:54.042Z,1.10
2019-01-09T02:21:25.550Z,1.27
2019-01-09T02:24:20.444Z,0.97
2019-01-09T02:26:57.767Z,1.20
2019-01-09T02:29:47.251Z,1.17
2019-01-09T02:32:29.501Z,0.93
2019-01-09T02:34:57.907Z,1.20
2019-01-09T02:37:26.425Z,1.13
2019-01-09T02:39:54.826Z,1.13
2019-01-09T02:42:23.267Z,1.47
2019-01-09T02:44:51.752Z,1.53
2019-01-09T02:47:20.167Z,1.37
2019-01-09T02:49:48.577Z,2.47
2019-01-09T02:52:17.006Z,1.60
2019-01-09T02:54:45.423Z,1.80
2019-01-09T02:57:13.865Z,1.10
2019-01-09T02:59:42.273Z,1.20
2019-01-09T03:02:10.704Z,0.93
2019-01-09T03:04:39.290Z,1.13
2019-01-09T03:07:07.748Z,1.37
2019-01-09T03:09:36.312Z,1.70
2019-01-09T03:12:04.827Z,2.47
2019-01-09T03:14:33.313Z,1.10
2019-01-09T03:17:02.119Z,2.10
2019-01-09T03:19:30.977Z,1.00
2019-01-09T03:21:59.566Z,1.20
2019-01-09T03:24:28.031Z,1.30
2019-01-09T03:26:56.444Z,1.40
2019-01-09T03:29:24.879Z,2.23
2019-01-09T03:31:53.295Z,1.87
2019-01-09T03:34:21.741Z,1.57
2019-01-09T03:36:50.162Z,1.87
2019-01-09T03:39:18.605Z,1.70
2019-01-09T03:41:47.030Z,1.70
2019-01-09T03:44:15.523Z,1.60
2019-01-09T03:46:44.153Z,1.67
2019-01-09T03:49:12.580Z,2.20
2019-01-09T03:51:40.990Z,2.30
2019-01-09T03:54:09.440Z,1.90
2019-01-09T03:56:37.881Z,1.80
2019-01-09T03:59:06.323Z,1.87
2019-01-09T04:01:34.728Z,1.20
2019-01-09T04:04:03.170Z,1.67
2019-01-09T04:06:31.593Z,1.43
2019-01-09T04:09:00.044Z,1.70
2019-01-09T04:11:28.477Z,1.30
2019-01-09T04:13:56.915Z,1.30
2019-01-09T04:16:25.331Z,1.83
2019-01-09T04:18:53.777Z,1.97
2019-01-09T04:21:22.207Z,1.20
2019-01-09T04:23:50.629Z,2.40
2019-01-09T04:26:19.062Z,2.27
2019-01-09T04:28:47.513Z,1.63
2019-01-09T04:31:15.940Z,1.50
2019-01-09T04:33:44.384Z,1.57
2019-01-09T04:36:12.827Z,1.00
2019-01-09T04:38:41.281Z,2.20
2019-01-09T04:41:09.696Z,1.27
2019-01-09T04:43:38.141Z,2.00
2019-01-09T04:46:06.604Z,1.40
2019-01-09T04:48:35.012Z,0.77
2019-01-09T04:51:03.431Z,1.23
2019-01-09T04:53:31.884Z,1.27
2019-01-09T04:56:00.332Z,1.50
2019-01-09T04:58:28.771Z,1.87
2019-01-09T05:00:57.190Z,2.43
2019-01-09T05:03:25.640Z,1.37
2019-01-09T05:05:54.075Z,2.13
2019-01-09T05:08:22.495Z,1.73
2019-01-09T05:10:50.936Z,1.63
2019-01-09T05:13:19.360Z,1.60
2019-01-09T05:15:47.878Z,3.67
2019-01-09T05:18:16.297Z,2.03
2019-01-09T05:20:44.752Z,1.87
2019-01-09T05:23:13.232Z,2.10
2019-01-09T05:25:41.668Z,2.07
2019-01-09T05:28:10.075Z,2.37
2019-01-09T05:30:38.515Z,1.83
2019-01-09T05:33:06.935Z,2.53
2019-01-09T05:35:35.383Z,1.60
2019-01-09T05:38:03.804Z,1.80
2019-01-09T05:40:32.234Z,2.47
2019-01-09T05:43:00.663Z,2.10
2019-01-09T05:45:29.107Z,2.37
2019-01-09T05:47:57.550Z,3.00
2019-01-09T05:50:25.980Z,2.07
2019-01-09T05:52:54.423Z,1.83
2019-01-09T05:55:22.869Z,1.80
2019-01-09T05:57:51.303Z,1.93
2019-01-09T06:00:19.727Z,1.03
2019-01-09T06:02:48.139Z,1.70
2019-01-09T06:05:16.598Z,2.40
2019-01-09T06:07:45.039Z,2.00
2019-01-09T06:10:13.488Z,2.87
2019-01-09T06:12:41.921Z,1.87
2019-01-09T06:15:10.401Z,2.00
2019-01-09T06:17:38.908Z,1.97
2019-01-09T06:20:07.792Z,2.67
2019-01-09T06:22:36.219Z,1.83
2019-01-09T06:25:05.888Z,1.83
2019-01-09T06:27:34.427Z,2.07
2019-01-09T06:30:03.033Z,3.93
2019-01-09T06:32:31.446Z,1.83
2019-01-09T06:35:00.203Z,2.10
2019-01-09T06:37:28.804Z,2.37
2019-01-09T06:39:57.203Z,3.37
2019-01-09T06:42:25.660Z,2.43
2019-01-09T06:44:54.081Z,2.30
2019-01-09T06:47:22.518Z,2.40
2019-01-09T06:49:50.997Z,2.50
2019-01-09T06:52:19.450Z,2.77
2019-01-09T06:54:47.899Z,2.37
2019-01-09T06:57:16.391Z,1.47
2019-01-09T06:59:44.956Z,1.97
2019-01-09T07:02:13.398Z,2.10
2019-01-09T07:04:41.806Z,2.40
2019-01-09T07:07:10.232Z,2.00
2019-01-09T07:09:38.679Z,2.13
2019-01-09T07:12:07.118Z,1.67
2019-01-09T07:14:35.526Z,2.03
2019-01-09T07:17:03.961Z,1.97
2019-01-09T07:19:32.392Z,2.40
2019-01-09T07:22:00.848Z,2.60
2019-01-09T07:24:29.250Z,3.77
2019-01-09T07:26:57.688Z,1.63
2019-01-09T07:29:26.123Z,2.93
2019-01-09T07:31:54.544Z,1.53
2019-01-09T07:34:22.998Z,2.17
2019-01-09T07:36:51.400Z,3.07
2019-01-09T07:39:19.849Z,2.27
2019-01-09T07:41:48.292Z,1.77
2019-01-09T07:44:16.719Z,2.53
2019-01-09T07:46:45.165Z,1.67
2019-01-09T07:49:13.598Z,2.30
2019-01-09T07:51:42.037Z,2.30
2019-01-09T07:54:10.454Z,1.20
2019-01-09T07:56:38.958Z,1.93
2019-01-09T07:59:07.375Z,1.70
2019-01-09T08:01:35.826Z,4.70
2019-01-09T08:04:04.246Z,2.17
2019-01-09T08:06:32.670Z,0.77
2019-01-09T08:09:01.093Z,1.93
2019-01-09T08:11:29.543Z,2.17
2019-01-09T08:13:58.015Z,2.60
2019-01-09T08:16:26.426Z,2.30
2019-01-09T08:18:54.872Z,2.40
2019-01-09T08:21:23.292Z,2.40
2019-01-09T08:23:51.726Z,2.23
2019-01-09T08:26:20.141Z,1.63
2019-01-09T08:28:48.583Z,2.60
2019-01-09T08:31:17.020Z,2.30
2019-01-09T08:33:45.444Z,1.73
2019-01-09T08:36:13.896Z,2.83
2019-01-09T08:38:42.335Z,2.40
2019-01-09T08:41:10.754Z,3.33
2019-01-09T08:43:39.194Z,1.70
2019-01-09T08:46:07.623Z,1.90
2019-01-09T08:48:36.063Z,2.13
2019-01-09T08:51:04.582Z,1.97
2019-01-09T08:53:32.990Z,2.83
2019-01-09T08:56:01.418Z,1.00
2019-01-09T08:58:29.865Z,3.00
2019-01-09T09:00:58.287Z,1.87
2019-01-09T09:03:26.719Z,1.20
2019-01-09T09:05:55.131Z,2.20
2019-01-09T09:08:24.515Z,2.33
2019-01-09T09:10:52.935Z,1.70
2019-01-09T09:13:32.598Z,1.77
2019-01-09T09:16:01.021Z,2.07
2019-01-09T09:18:29.460Z,2.77
2019-01-09T09:20:57.892Z,2.80
2019-01-09T09:23:26.339Z,1.53
2019-01-09T09:25:54.796Z,2.10
2019-01-09T09:28:23.244Z,2.20
2019-01-09T09:30:51.722Z,3.23
2019-01-09T09:33:20.142Z,2.97
2019-01-09T09:35:48.596Z,1.93
2019-01-09T09:38:20.609Z,2.80
2019-01-09T09:40:47.180Z,1.60
2019-01-09T09:43:15.619Z,2.30
2019-01-09T09:45:44.064Z,1.50
2019-01-09T09:48:12.482Z,2.13
2019-01-09T09:50:40.931Z,1.30
2019-01-09T09:53:09.352Z,1.73
2019-01-09T09:55:37.797Z,1.90
2019-01-09T09:58:06.235Z,2.60
2019-01-09T10:00:34.731Z,2.30
2019-01-09T10:03:03.143Z,2.87
2019-01-09T10:05:31.591Z,3.20
2019-01-09T10:08:00.031Z,1.40
2019-01-09T10:10:28.447Z,2.20
2019-01-09T10:12:56.898Z,1.33
2019-01-09T10:15:25.379Z,1.70
2019-01-09T10:17:53.808Z,2.90
2019-01-09T10:20:22.238Z,2.90
2019-01-09T10:22:50.791Z,1.83
2019-01-09T10:25:19.195Z,1.80
2019-01-09T10:27:47.647Z,1.97
2019-01-09T10:30:18.771Z,2.20
2019-01-09T10:32:47.206Z,1.33
2019-01-09T10:35:15.769Z,2.50
2019-01-09T10:37:46.161Z,1.60
2019-01-09T10:40:17.015Z,1.70
2019-01-09T10:42:45.543Z,1.17
2019-01-09T10:45:16.951Z,2.57
2019-01-09T10:47:45.459Z,1.60
2019-01-09T10:50:15.632Z,2.20
2019-01-09T10:52:44.150Z,1.90
2019-01-09T10:55:15.023Z,1.33
2019-01-09T10:57:43.437Z,2.47
2019-01-09T11:00:20.622Z,1.70
2019-01-09T11:02:49.034Z,1.97
2019-01-09T11:05:17.680Z,1.63
2019-01-09T11:07:46.177Z,2.77
2019-01-09T11:10:17.064Z,1.43
2019-01-09T11:12:45.499Z,2.07
2019-01-09T11:15:14.259Z,2.50
2019-01-09T11:17:42.767Z,1.53
2019-01-09T11:20:16.628Z,0.97
2019-01-09T11:22:45.184Z,1.67
2019-01-09T11:25:16.503Z,1.63
2019-01-09T11:27:44.950Z,2.17
2019-01-09T11:30:18.974Z,1.97
2019-01-09T11:32:47.396Z,2.13
2019-01-09T11:35:20.755Z,2.60
2019-01-09T11:37:49.257Z,1.33
2019-01-09T11:40:19.033Z,1.67
2019-01-09T11:42:47.524Z,2.40
2019-01-09T11:45:20.017Z,1.70
2019-01-09T11:47:48.698Z,2.63
2019-01-09T11:50:17.770Z,2.20
2019-01-09T11:52:46.292Z,2.10
2019-01-09T11:55:15.492Z,1.63
2019-01-09T11:57:43.922Z,1.50
2019-01-09T12:00:26.368Z,1.57
2019-01-09T12:02:54.832Z,1.57
2019-01-09T12:05:23.319Z,2.10
2019-01-09T12:07:51.759Z,2.13
2019-01-09T12:10:29.813Z,1.70
2019-01-09T12:12:52.281Z,1.03
2019-01-09T12:15:20.730Z,1.60
2019-01-09T12:17:49.585Z,1.07
2019-01-09T12:20:19.640Z,1.23
2019-01-09T12:22:48.944Z,2.00
2019-01-09T12:25:17.602Z,2.70
2019-01-09T12:27:46.044Z,2.43
2019-01-09T12:30:17.585Z,1.80
2019-01-09T12:32:46.014Z,1.33
2019-01-09T12:35:14.515Z,1.00
2019-01-09T12:37:42.922Z,1.13
2019-01-09T12:40:11.511Z,1.63
2019-01-09T12:42:39.953Z,1.80
2019-01-09T12:45:11.592Z,1.53
2019-01-09T12:47:40.021Z,1.23
2019-01-09T12:50:14.845Z,2.00
2019-01-09T12:52:43.286Z,1.20
2019-01-09T12:55:11.798Z,2.27
2019-01-09T12:57:40.240Z,1.73
2019-01-09T13:00:11.826Z,1.30
2019-01-09T13:02:40.378Z,1.80
2019-01-09T13:05:09.324Z,1.13
2019-01-09T13:07:37.757Z,1.83
2019-01-09T13:10:08.891Z,1.17
2019-01-09T13:12:37.306Z,0.77
2019-01-09T13:15:08.555Z,1.20
2019-01-09T13:17:37.006Z,1.40
2019-01-09T13:20:15.775Z,1.30
2019-01-09T13:22:44.188Z,0.63
2019-01-09T13:25:14.330Z,2.00
2019-01-09T13:27:43.028Z,1.17
2019-01-09T13:30:16.647Z,0.70
2019-01-09T13:32:45.135Z,1.10
2019-01-09T13:35:13.819Z,1.40
2019-01-09T13:37:42.235Z,1.40
2019-01-09T13:40:20.364Z,1.03
2019-01-09T13:42:48.784Z,1.10
2019-01-09T13:45:19.539Z,0.90
2019-01-09T13:47:48.051Z,1.90
2019-01-09T13:50:18.525Z,1.27
2019-01-09T13:52:47.192Z,1.60
2019-01-09T13:55:16.545Z,0.90
2019-01-09T13:57:45.064Z,1.53
2019-01-09T14:00:16.086Z,1.57
2019-01-09T14:02:44.696Z,1.17
2019-01-09T14:05:13.458Z,1.50
2019-01-09T14:07:41.933Z,1.63
2019-01-09T14:10:13.779Z,1.20
2019-01-09T14:12:42.240Z,1.33
2019-01-09T14:15:13.891Z,0.60
2019-01-09T14:17:42.327Z,1.83
2019-01-09T14:20:12.011Z,1.70
2019-01-09T14:22:40.663Z,2.00
2019-01-09T14:25:11.351Z,1.00
2019-01-09T14:27:39.751Z,1.67
2019-01-09T14:30:20.129Z,2.00
2019-01-09T14:32:48.531Z,1.83
2019-01-09T14:35:17.090Z,1.00
2019-01-09T14:37:45.579Z,1.67
2019-01-09T14:40:16.054Z,1.80
2019-01-09T14:42:44.475Z,1.30
2019-01-09T14:45:14.351Z,1.97
2019-01-09T14:47:42.826Z,1.20
2019-01-09T14:50:20.144Z,2.70
2019-01-09T14:52:48.564Z,3.20
2019-01-09T14:55:17.363Z,5.30
2019-01-09T14:57:45.880Z,7.30
2019-01-09T15:00:19.383Z,1.53
2019-01-09T15:02:47.870Z,2.67
2019-01-09T15:05:16.541Z,2.17
2019-01-09T15:07:44.957Z,3.43
2019-01-09T15:10:22.242Z,1.40
2019-01-09T15:12:51.419Z,1.00
2019-01-09T15:15:19.875Z,2.20
2019-01-09T15:17:48.365Z,1.57
2019-01-09T15:20:20.405Z,1.10
2019-01-09T15:22:48.890Z,2.40
2019-01-09T15:25:18.156Z,1.43
2019-01-09T15:27:46.577Z,2.13
2019-01-09T15:30:20.991Z,1.13
2019-01-09T15:32:49.580Z,2.60
2019-01-09T15:35:17.997Z,1.70
2019-01-09T15:37:46.487Z,1.07
2019-01-09T15:40:23.418Z,1.90
2019-01-09T15:42:52.267Z,1.83
2019-01-09T15:45:20.965Z,1.93
2019-01-09T15:47:49.403Z,1.80
2019-01-09T15:50:20.342Z,2.40
2019-01-09T15:52:48.784Z,2.10
2019-01-09T15:55:17.852Z,2.17
2019-01-09T15:57:48.022Z,1.60
2019-01-09T16:00:25.039Z,1.20
2019-01-09T16:02:53.644Z,1.83
2019-01-09T16:05:22.175Z,2.80
2019-01-09T16:07:50.941Z,2.53
2019-01-09T16:10:22.187Z,1.87
2019-01-09T16:12:50.679Z,1.10
2019-01-09T16:15:19.448Z,2.00
2019-01-09T16:17:47.905Z,1.90
2019-01-09T16:20:23.202Z,1.20
2019-01-09T16:22:51.817Z,1.53
2019-01-09T16:25:20.316Z,1.57
2019-01-09T16:27:48.769Z,1.80
2019-01-09T16:30:34.177Z,1.60
2019-01-09T16:33:02.424Z,1.27
2019-01-09T16:35:33.631Z,2.40
2019-01-09T16:38:02.080Z,1.70
2019-01-09T16:40:30.505Z,3.50
2019-01-09T16:42:58.944Z,2.37
2019-01-09T16:45:27.526Z,2.30
2019-01-09T16:47:56.234Z,1.77
2019-01-09T16:50:25.401Z,2.30
2019-01-09T16:52:53.850Z,2.50
2019-01-09T16:55:22.341Z,2.37
2019-01-09T16:57:50.932Z,3.80
2019-01-09T17:00:28.179Z,2.17
2019-01-09T17:02:56.690Z,2.20
2019-01-09T17:05:25.194Z,2.20
2019-01-09T17:07:54.156Z,2.30
2019-01-09T17:10:22.738Z,3.70
2019-01-09T17:12:51.146Z,2.07
2019-01-09T17:15:20.016Z,2.40
2019-01-09T17:17:48.570Z,2.67
2019-01-09T17:20:27.762Z,2.30
2019-01-09T17:22:56.718Z,2.07
2019-01-09T17:25:25.249Z,1.40
2019-01-09T17:27:53.831Z,4.90
2019-01-09T17:30:27.943Z,2.30
2019-01-09T17:32:56.564Z,1.70
2019-01-09T17:35:24.993Z,2.70
2019-01-09T17:37:53.608Z,2.17
2019-01-09T17:40:23.465Z,2.43
2019-01-09T17:42:52.191Z,2.93
2019-01-09T17:45:20.703Z,2.60
2019-01-09T17:47:49.114Z,2.20
2019-01-09T17:50:23.370Z,2.00
2019-01-09T17:52:51.819Z,1.90
2019-01-09T17:55:20.302Z,2.70
2019-01-09T17:57:48.754Z,2.03
2019-01-09T18:00:23.048Z,2.03
2019-01-09T18:02:51.474Z,2.53
2019-01-09T18:05:19.971Z,2.97
2019-01-09T18:07:48.464Z,2.20
2019-01-09T18:10:19.084Z,3.23
2019-01-09T18:12:47.708Z,1.70
2019-01-09T18:15:18.476Z,3.37
2019-01-09T18:17:46.966Z,2.10
2019-01-09T18:20:20.274Z,2.90
2019-01-09T18:22:49.275Z,2.53
2019-01-09T18:25:19.783Z,2.70
2019-01-09T18:27:48.274Z,1.90
2019-01-09T18:30:37.778Z,2.80
2019-01-09T18:33:09.293Z,2.80
2019-01-09T18:35:43.919Z,3.30
2019-01-09T18:38:40.937Z,2.90
2019-01-09T18:41:12.446Z,1.70
2019-01-09T18:43:59.015Z,2.30
2019-01-09T18:46:52.597Z,3.83
2019-01-09T18:49:56.845Z,1.63
2019-01-09T18:52:28.640Z,3.73
2019-01-09T18:54:57.100Z,3.50
2019-01-09T18:57:25.728Z,3.93
2019-01-09T18:59:54.179Z,3.93
2019-01-09T19:02:22.715Z,3.40
2019-01-09T19:04:51.521Z,3.80
2019-01-09T19:07:20.280Z,3.30
2019-01-09T19:09:48.777Z,3.00
2019-01-09T19:12:17.219Z,2.20
2019-01-09T19:14:45.635Z,2.50
2019-01-09T19:17:14.503Z,4.30
2019-01-09T19:19:42.953Z,2.03
2019-01-09T19:22:11.468Z,3.87
2019-01-09T19:24:39.956Z,3.80
2019-01-09T19:27:08.463Z,2.50
2019-01-09T19:29:37.168Z,3.07
2019-01-09T19:32:05.755Z,2.87
2019-01-09T19:34:34.256Z,3.03
2019-01-09T19:37:02.690Z,3.40
2019-01-09T19:39:31.197Z,2.70
2019-01-09T19:41:59.618Z,3.63
2019-01-09T19:44:28.039Z,3.23
2019-01-09T19:46:56.494Z,3.23
2019-01-09T19:49:25.144Z,3.87
2019-01-09T19:51:53.581Z,4.30
2019-01-09T19:54:22.087Z,3.50
2019-01-09T19:56:50.535Z,3.50
2019-01-09T19:59:19.320Z,3.30
2019-01-09T20:01:48.007Z,3.43
2019-01-09T20:04:16.622Z,2.83
2019-01-09T20:06:45.076Z,3.17
2019-01-09T20:09:13.551Z,3.40
2019-01-09T20:11:42.127Z,3.13
2019-01-09T20:14:10.806Z,4.23
2019-01-09T20:16:39.395Z,3.50
2019-01-09T20:19:08.397Z,3.50
2019-01-09T20:21:37.049Z,3.57
2019-01-09T20:24:06.211Z,3.43
2019-01-09T20:26:34.636Z,3.63
2019-01-09T20:29:04.455Z,3.00
2019-01-09T20:31:33.438Z,3.17
2019-01-09T20:34:03.434Z,3.23
2019-01-09T20:36:32.410Z,4.67
2019-01-09T20:39:01.011Z,3.90
2019-01-09T20:41:35.233Z,3.70
2019-01-09T20:43:59.733Z,4.13
2019-01-09T20:46:28.255Z,3.50
2019-01-09T20:48:57.136Z,4.70
2019-01-09T20:51:26.638Z,3.40
2019-01-09T20:53:55.206Z,4.10
2019-01-09T20:56:24.033Z,4.17
2019-01-09T20:58:52.903Z,3.70
2019-01-09T21:01:21.542Z,3.57
2019-01-09T21:03:50.944Z,2.60
2019-01-09T21:06:19.732Z,3.40
2019-01-09T21:08:48.511Z,2.53
2019-01-09T21:11:18.536Z,2.73
2019-01-09T21:13:47.213Z,2.50
2019-01-09T21:16:15.858Z,2.90
2019-01-09T21:18:44.731Z,2.67
2019-01-09T21:21:13.642Z,4.60
2019-01-09T21:23:42.119Z,10.27
2019-01-09T21:26:10.686Z,8.93
2019-01-09T21:28:39.433Z,7.80
2019-01-09T21:31:07.902Z,5.47
2019-01-09T21:33:36.315Z,4.30
2019-01-09T21:36:04.936Z,4.17
2019-01-09T21:38:33.348Z,4.60
2019-01-09T21:41:01.930Z,4.60
2019-01-09T21:43:30.396Z,3.33
2019-01-09T21:45:58.967Z,3.97
2019-01-09T21:48:27.541Z,3.43
2019-01-09T21:50:56.031Z,3.50
2019-01-09T21:53:24.488Z,3.73
2019-01-09T21:55:52.912Z,3.77
2019-01-09T21:58:21.363Z,2.90
2019-01-09T22:00:49.779Z,3.20
2019-01-09T22:03:18.274Z,3.10
2019-01-09T22:05:46.863Z,2.13
2019-01-09T22:08:15.318Z,3.60
2019-01-09T22:10:43.835Z,3.37
2019-01-09T22:13:12.414Z,2.83
2019-01-09T22:15:40.859Z,2.50
2019-01-09T22:18:09.303Z,2.83
2019-01-09T22:20:37.803Z,2.90
2019-01-09T22:23:06.295Z,2.50
2019-01-09T22:25:34.751Z,2.50
2019-01-09T22:28:03.191Z,1.87
2019-01-09T22:30:31.692Z,2.60
2019-01-09T22:33:00.140Z,2.50
2019-01-09T22:35:28.595Z,3.30
2019-01-09T22:37:57.020Z,1.60
2019-01-09T22:40:25.673Z,2.03
2019-01-09T22:42:54.091Z,2.10
2019-01-09T22:45:22.556Z,2.70
2019-01-09T22:47:50.999Z,2.50
2019-01-09T22:50:21.506Z,3.00
2019-01-09T22:52:50.053Z,2.60
2019-01-09T22:55:18.503Z,3.00
2019-01-09T22:57:47.063Z,2.50
2019-01-09T23:00:37.419Z,2.80
2019-01-09T23:03:09.012Z,2.67
2019-01-09T23:05:37.772Z,2.80
2019-01-09T23:08:06.288Z,3.00
2019-01-09T23:10:34.722Z,3.10
2019-01-09T23:13:03.150Z,3.87
2019-01-09T23:15:32.137Z,3.97
2019-01-09T23:18:00.715Z,3.17
2019-01-09T23:20:29.762Z,3.47
2019-01-09T23:22:58.346Z,4.93
2019-01-09T23:25:26.771Z,4.83
2019-01-09T23:27:55.382Z,3.97
2019-01-09T23:30:23.804Z,3.73
2019-01-09T23:32:52.518Z,4.40
2019-01-09T23:35:21.139Z,6.30
2019-01-09T23:37:49.640Z,5.20
2019-01-09T23:40:18.631Z,5.50
2019-01-09T23:42:47.211Z,4.20
2019-01-09T23:45:16.006Z,4.30
2019-01-09T23:47:44.419Z,3.30
2019-01-09T23:50:13.192Z,2.80
2019-01-09T23:52:41.855Z,3.33
2019-01-09T23:55:13.862Z,3.53
2019-01-09T23:57:42.294Z,3.50
